Time;durP1;ratioP1;P1;durP2;ratioP2;P2;SDS_P1;SDS_P2;PMS_P1;PMS_P2;Temp;Humidity;BMP_temperature;BMP_pressure;BME280_temperature;BME280_humidity;BME280_pressure;Samples;Min_cycle;Max_cycle;Signal;HPM_P1;HPM_P2
2022/03/11 00:04:14;;;;;;;10.35;5.68;;;9.00;38.50;;;;;;9986503;28;20435;-67
2022/03/11 00:09:04;;;;;;;11.80;5.50;;;8.90;38.40;;;;;;9992485;28;20759;-68
2022/03/11 00:13:56;;;;;;;10.90;5.32;;;8.80;38.20;;;;;;9990113;28;20190;-68
2022/03/11 00:18:48;;;;;;;10.60;5.45;;;8.70;38.70;;;;;;9985050;28;20080;-68
2022/03/11 00:23:40;;;;;;;8.95;4.72;;;8.50;38.60;;;;;;10001518;28;20041;-69
2022/03/11 00:28:31;;;;;;;8.93;5.07;;;8.30;38.90;;;;;;9997048;28;20036;-69
2022/03/11 00:33:22;;;;;;;10.27;5.38;;;8.50;39.30;;;;;;9991063;28;20438;-67
2022/03/11 00:38:13;;;;;;;7.30;3.92;;;8.50;39.00;;;;;;10006332;28;20069;-69
2022/03/11 00:43:03;;;;;;;11.95;4.78;;;8.50;38.90;;;;;;9991750;28;20064;-67
2022/03/11 00:47:54;;;;;;;8.30;4.63;;;8.30;39.10;;;;;;10000905;28;20110;-68
2022/03/11 00:52:45;;;;;;;9.32;4.90;;;8.30;39.40;;;;;;9994863;28;20043;-68
2022/03/11 00:57:35;;;;;;;11.85;4.18;;;8.40;39.20;;;;;;10002591;28;20034;-70
2022/03/11 01:02:26;;;;;;;9.43;4.45;;;8.30;39.60;;;;;;10004700;28;20037;-68
2022/03/11 01:07:17;;;;;;;7.35;4.10;;;8.40;39.50;;;;;;10001511;28;20031;-68
2022/03/11 01:12:08;;;;;;;7.25;4.32;;;8.20;39.70;;;;;;9993255;28;20116;-69
2022/03/11 01:16:58;;;;;;;6.82;4.25;;;8.20;39.70;;;;;;10017050;28;20262;-68
2022/03/11 01:21:49;;;;;;;6.60;3.92;;;8.20;39.80;;;;;;10002645;28;20029;-68
2022/03/11 01:26:40;;;;;;;8.35;4.32;;;8.10;39.80;;;;;;9994636;28;20065;-69
2022/03/11 01:31:31;;;;;;;10.15;4.40;;;8.20;39.70;;;;;;10012670;28;20078;-71
2022/03/11 01:36:21;;;;;;;7.75;4.65;;;8.20;40.10;;;;;;10005046;28;20044;-68
2022/03/11 01:41:13;;;;;;;6.55;4.57;;;8.00;40.40;;;;;;10001156;28;20505;-66
2022/03/11 01:46:03;;;;;;;6.80;4.13;;;7.90;40.70;;;;;;10002681;28;20030;-70
2022/03/11 01:50:54;;;;;;;7.65;5.63;;;7.90;40.50;;;;;;9998482;28;20030;-68
2022/03/11 01:55:45;;;;;;;8.82;4.55;;;7.90;40.50;;;;;;10011236;28;20034;-68
2022/03/11 02:00:38;;;;;;;8.65;4.88;;;7.80;40.50;;;;;;9995575;28;20046;-70
2022/03/11 02:05:28;;;;;;;11.38;4.55;;;7.70;40.50;;;;;;10002586;28;20117;-69
2022/03/11 02:10:19;;;;;;;7.03;4.40;;;7.60;40.60;;;;;;9999318;28;20421;-70
2022/03/11 02:15:10;;;;;;;8.57;5.03;;;7.60;40.70;;;;;;9994912;28;20053;-69
2022/03/11 02:20:02;;;;;;;11.55;5.00;;;7.70;40.60;;;;;;10001912;28;20121;-68
2022/03/11 02:24:54;;;;;;;7.35;4.30;;;7.50;40.60;;;;;;10003995;28;20224;-71
2022/03/11 02:29:45;;;;;;;7.57;4.32;;;7.40;40.60;;;;;;10010060;28;20026;-69
2022/03/11 02:34:40;;;;;;;9.23;4.50;;;7.40;40.80;;;;;;9994262;28;20030;-69
2022/03/11 02:39:30;;;;;;;8.52;4.35;;;7.50;40.80;;;;;;10015199;28;20060;-66
2022/03/11 02:44:22;;;;;;;13.07;4.70;;;7.30;40.80;;;;;;9996301;28;20421;-69
2022/03/11 02:49:13;;;;;;;12.27;4.75;;;7.40;40.90;;;;;;9995009;28;20624;-73
2022/03/11 02:54:04;;;;;;;9.52;5.07;;;7.50;40.90;;;;;;9999248;28;20133;-72
2022/03/11 02:58:55;;;;;;;8.95;4.65;;;7.40;41.00;;;;;;9997182;28;20038;-71
2022/03/11 03:03:46;;;;;;;8.80;4.75;;;7.40;41.00;;;;;;9997428;28;20349;-65
2022/03/11 03:08:36;;;;;;;12.15;5.35;;;7.10;41.90;;;;;;9998090;28;20107;-71
2022/03/11 03:13:27;;;;;;;7.90;4.50;;;7.00;41.40;;;;;;10014209;28;20554;-72
2022/03/11 03:18:18;;;;;;;10.48;4.88;;;6.90;41.40;;;;;;9997246;28;20042;-69
2022/03/11 03:23:09;;;;;;;8.02;4.20;;;6.90;41.60;;;;;;10002396;28;20508;-69
2022/03/11 03:28:00;;;;;;;7.22;4.35;;;6.80;41.60;;;;;;10010937;28;20096;-70
2022/03/11 03:32:50;;;;;;;5.93;3.90;;;6.80;41.70;;;;;;10011609;28;20528;-70
2022/03/11 03:37:41;;;;;;;8.80;5.03;;;6.80;41.80;;;;;;10002013;28;20029;-68
2022/03/11 03:42:32;;;;;;;7.60;4.50;;;6.80;41.70;;;;;;10014000;28;20038;-71
2022/03/11 03:47:23;;;;;;;8.75;4.50;;;6.70;41.90;;;;;;10006169;28;20049;-69
2022/03/11 03:52:13;;;;;;;8.80;4.38;;;6.60;42.00;;;;;;9984525;28;20026;-69
2022/03/11 03:57:04;;;;;;;9.00;5.00;;;6.50;42.00;;;;;;9994303;28;20334;-67
2022/03/11 04:01:55;;;;;;;10.40;4.32;;;6.60;42.20;;;;;;9997285;28;20046;-67
2022/03/11 04:06:46;;;;;;;5.95;3.60;;;6.60;42.30;;;;;;9997082;28;20501;-65
2022/03/11 04:11:36;;;;;;;8.68;3.95;;;6.60;42.30;;;;;;9994006;28;20034;-66
2022/03/11 04:16:27;;;;;;;9.52;3.90;;;6.60;42.40;;;;;;9991209;28;20070;-66
2022/03/11 04:21:19;;;;;;;7.28;3.80;;;6.60;42.50;;;;;;9998137;28;20048;-68
2022/03/11 04:26:10;;;;;;;6.90;3.92;;;6.70;42.70;;;;;;9997643;28;20053;-66
2022/03/11 04:31:02;;;;;;;8.60;4.25;;;6.60;42.80;;;;;;9998431;28;20058;-67
2022/03/11 04:35:53;;;;;;;9.98;3.85;;;6.50;42.90;;;;;;10003239;28;20476;-67
2022/03/11 04:40:43;;;;;;;7.00;3.92;;;6.60;42.90;;;;;;10000538;28;20084;-67
2022/03/11 04:45:34;;;;;;;5.28;3.85;;;6.40;43.20;;;;;;9995616;28;20029;-67
2022/03/11 04:50:25;;;;;;;9.25;3.75;;;6.40;43.80;;;;;;9986623;28;20033;-68
2022/03/11 04:55:17;;;;;;;7.97;3.85;;;6.30;43.80;;;;;;9997264;28;20030;-69
2022/03/11 05:00:08;;;;;;;7.35;4.03;;;6.20;44.40;;;;;;9999721;28;20097;-69
2022/03/11 05:05:04;;;;;;;8.45;3.80;;;6.10;44.30;;;;;;9996307;28;20324;-68
2022/03/11 05:09:54;;;;;;;6.67;3.80;;;6.10;44.50;;;;;;9990077;28;20026;-68
2022/03/11 05:14:45;;;;;;;7.22;4.03;;;6.00;44.30;;;;;;9949968;28;1128955;-66
2022/03/11 05:19:36;;;;;;;6.28;3.53;;;5.90;44.60;;;;;;9980851;28;20519;-69
2022/03/11 05:24:26;;;;;;;6.50;3.80;;;5.90;44.30;;;;;;9998993;28;20030;-69
2022/03/11 05:29:17;;;;;;;8.88;3.95;;;5.90;44.50;;;;;;10006444;28;20218;-70
2022/03/11 05:34:08;;;;;;;6.55;4.40;;;5.90;44.30;;;;;;9996332;28;20027;-69
2022/03/11 05:38:58;;;;;;;7.15;3.72;;;5.70;44.40;;;;;;10001809;28;20065;-69
2022/03/11 05:43:49;;;;;;;8.15;3.75;;;5.60;44.80;;;;;;10002685;28;20030;-72
2022/03/11 05:48:40;;;;;;;5.93;3.80;;;5.70;44.60;;;;;;9986516;28;20083;-72
2022/03/11 05:53:31;;;;;;;7.40;4.55;;;5.50;44.90;;;;;;9985577;28;20137;-72
2022/03/11 05:58:21;;;;;;;6.78;4.00;;;5.50;44.90;;;;;;9968663;28;20370;-72
2022/03/11 06:03:12;;;;;;;10.05;4.60;;;5.40;45.30;;;;;;9998785;28;20053;-68
2022/03/11 06:08:03;;;;;;;9.35;3.85;;;5.40;45.30;;;;;;10006033;28;20037;-66
2022/03/11 06:12:54;;;;;;;10.93;5.35;;;5.50;45.20;;;;;;9997772;28;20038;-70
2022/03/11 06:17:44;;;;;;;8.07;3.90;;;5.50;46.00;;;;;;9996310;28;20045;-69
2022/03/11 06:22:36;;;;;;;8.95;4.18;;;5.50;45.80;;;;;;10013043;28;20441;-69
2022/03/11 06:27:26;;;;;;;10.70;4.15;;;5.40;45.90;;;;;;10009693;28;20022;-67
2022/03/11 06:32:17;;;;;;;11.52;4.90;;;5.50;45.90;;;;;;10008564;28;20038;-68
2022/03/11 06:37:08;;;;;;;7.57;3.95;;;5.50;46.30;;;;;;10003694;28;20026;-72
2022/03/11 06:42:08;;;;;;;10.35;4.70;;;5.50;46.50;;;;;;10009436;28;20034;-70
2022/03/11 06:46:59;;;;;;;7.60;4.30;;;5.50;46.60;;;;;;10008564;28;20336;-68
2022/03/11 06:51:49;;;;;;;7.30;4.32;;;5.50;46.60;;;;;;9993061;28;20029;-67
2022/03/11 06:56:40;;;;;;;7.93;4.03;;;5.50;46.90;;;;;;9997060;28;20038;-66
2022/03/11 07:01:31;;;;;;;10.48;4.82;;;5.60;47.20;;;;;;9991450;28;20069;-68
2022/03/11 07:06:23;;;;;;;7.60;4.30;;;5.60;47.10;;;;;;10012569;28;20042;-69
2022/03/11 07:11:14;;;;;;;6.75;5.07;;;5.70;47.10;;;;;;9993876;28;20026;-69
2022/03/11 07:16:05;;;;;;;10.80;4.10;;;5.60;48.70;;;;;;9993653;28;20068;-68
2022/03/11 07:20:56;;;;;;;11.18;4.45;;;5.60;48.90;;;;;;9987098;28;20036;-68
2022/03/11 07:25:46;;;;;;;8.75;4.65;;;5.50;50.20;;;;;;10007802;28;20393;-68
2022/03/11 07:30:38;;;;;;;9.73;4.78;;;5.50;50.10;;;;;;9994110;28;20033;-68
2022/03/11 07:35:28;;;;;;;9.23;5.00;;;5.60;49.30;;;;;;10001295;28;20021;-69
2022/03/11 07:40:19;;;;;;;7.97;4.53;;;5.70;49.80;;;;;;10009516;28;20431;-68
2022/03/11 07:45:14;;;;;;;10.45;5.13;;;5.60;50.80;;;;;;10013193;28;20026;-69
2022/03/11 07:50:06;;;;;;;9.23;5.63;;;5.80;49.90;;;;;;10012180;28;20060;-68
2022/03/11 07:54:56;;;;;;;9.52;5.68;;;6.00;49.50;;;;;;10009491;28;20065;-68
2022/03/11 07:59:47;;;;;;;10.00;5.78;;;6.10;50.10;;;;;;10011168;28;20065;-66
2022/03/11 08:04:38;;;;;;;12.45;5.53;;;6.10;49.60;;;;;;10012622;28;20088;-66
2022/03/11 08:09:28;;;;;;;13.60;5.68;;;6.20;49.70;;;;;;10002508;28;20022;-69
2022/03/11 08:14:19;;;;;;;13.07;6.25;;;6.20;50.30;;;;;;10006747;28;20046;-69
2022/03/11 08:19:10;;;;;;;12.25;6.03;;;6.30;50.10;;;;;;10006030;28;20277;-70
2022/03/11 08:24:00;;;;;;;10.63;6.35;;;6.30;50.10;;;;;;10006171;28;20095;-71
2022/03/11 08:28:51;;;;;;;11.70;7.18;;;6.40;49.80;;;;;;10008507;28;20459;-66
2022/03/11 08:33:42;;;;;;;11.55;5.88;;;6.60;49.90;;;;;;10009628;28;20504;-69
2022/03/11 08:38:32;;;;;;;12.30;6.28;;;6.80;49.80;;;;;;10009736;28;20042;-69
2022/03/11 08:43:23;;;;;;;13.35;6.32;;;6.90;50.00;;;;;;10012227;28;20601;-72
2022/03/11 08:48:14;;;;;;;10.10;6.18;;;6.80;50.10;;;;;;10014663;28;20262;-70
2022/03/11 08:53:05;;;;;;;15.23;6.95;;;7.00;50.20;;;;;;10009601;28;20397;-73
2022/03/11 08:57:55;;;;;;;11.70;5.90;;;7.30;49.80;;;;;;10012732;28;20485;-69
2022/03/11 09:02:46;;;;;;;11.18;6.18;;;7.30;49.90;;;;;;10008187;28;20044;-72
2022/03/11 09:07:37;;;;;;;10.00;6.05;;;7.50;49.90;;;;;;10011002;28;20501;-70
2022/03/11 09:12:28;;;;;;;15.30;6.72;;;7.70;49.60;;;;;;9997818;28;20054;-70
2022/03/11 09:17:19;;;;;;;11.60;6.55;;;7.60;49.80;;;;;;10003042;28;20036;-70
2022/03/11 09:22:14;;;;;;;14.20;6.47;;;7.70;49.90;;;;;;10006573;28;20046;-71
2022/03/11 09:27:18;;;;;;;13.25;7.03;;;7.80;50.00;;;;;;10010261;28;20080;-69
2022/03/11 09:32:08;;;;;;;11.43;6.28;;;8.00;49.80;;;;;;10008250;28;20033;-69
2022/03/11 09:36:59;;;;;;;13.77;7.10;;;8.20;49.60;;;;;;10013569;28;20076;-69
2022/03/11 09:41:51;;;;;;;11.43;7.25;;;8.30;49.50;;;;;;10014741;28;20947;-70
2022/03/11 09:46:43;;;;;;;13.80;7.22;;;8.50;49.50;;;;;;10011575;28;20097;-70
2022/03/11 09:51:37;;;;;;;14.05;7.43;;;8.60;49.30;;;;;;9997347;28;20397;-68
2022/03/11 09:56:29;;;;;;;9.10;6.03;;;8.60;49.20;;;;;;10015602;28;20493;-72
2022/03/11 10:01:20;;;;;;;15.02;6.60;;;8.80;49.20;;;;;;10016846;28;20332;-70
2022/03/11 10:06:11;;;;;;;13.93;6.22;;;8.90;49.10;;;;;;10017192;28;20018;-69
2022/03/11 10:11:26;;;;;;;12.88;6.45;;;8.90;49.20;;;;;;10015705;28;20038;-70
2022/03/11 10:16:25;;;;;;;15.93;6.53;;;9.20;49.00;;;;;;10010130;28;20045;-68
2022/03/11 10:21:16;;;;;;;14.43;6.95;;;9.40;48.60;;;;;;10015775;28;20401;-74
2022/03/11 10:26:06;;;;;;;12.30;6.55;;;9.50;48.60;;;;;;10014173;28;20175;-71
2022/03/11 10:31:08;;;;;;;12.88;6.75;;;9.70;48.50;;;;;;10011936;28;20604;-71
2022/03/11 10:35:59;;;;;;;14.55;7.32;;;9.70;48.70;;;;;;10013255;28;20032;-71
2022/03/11 10:40:52;;;;;;;13.45;6.75;;;9.70;49.30;;;;;;10017011;28;20043;-73
2022/03/11 10:45:55;;;;;;;13.48;7.10;;;9.90;48.40;;;;;;10015833;28;20037;-77
2022/03/11 10:50:46;;;;;;;13.02;7.07;;;10.00;48.40;;;;;;10010419;28;20030;-68
2022/03/11 10:55:39;;;;;;;13.65;6.35;;;10.10;48.40;;;;;;10003378;28;20025;-67
2022/03/11 11:00:32;;;;;;;15.18;7.53;;;10.10;48.40;;;;;;10009475;28;20512;-70
2022/03/11 11:05:24;;;;;;;10.57;6.38;;;10.40;48.10;;;;;;10014655;28;20091;-72
2022/03/11 11:10:18;;;;;;;17.55;7.60;;;10.40;48.20;;;;;;9999451;28;20234;-66
2022/03/11 11:15:11;;;;;;;15.38;8.70;;;10.50;48.00;;;;;;9986677;28;20536;-68
2022/03/11 11:20:04;;;;;;;14.23;6.32;;;10.70;47.90;;;;;;10004820;28;20029;-68
2022/03/11 11:24:55;;;;;;;12.50;7.55;;;10.80;47.80;;;;;;10011608;28;20022;-66
2022/03/11 11:29:49;;;;;;;18.48;8.05;;;10.80;47.80;;;;;;10001535;28;20022;-66
2022/03/11 11:34:39;;;;;;;15.48;7.57;;;10.90;47.80;;;;;;9994025;28;20033;-69
2022/03/11 11:39:41;;;;;;;15.18;7.95;;;10.90;47.60;;;;;;9997986;28;20410;-69
2022/03/11 11:44:34;;;;;;;16.40;8.20;;;11.00;47.60;;;;;;9998638;28;20146;-67
2022/03/11 11:49:46;;;;;;;15.57;8.52;;;11.10;47.50;;;;;;10016366;28;20022;-70
2022/03/11 11:54:40;;;;;;;22.38;8.05;;;11.20;47.50;;;;;;10014447;28;20018;-69
2022/03/11 11:59:35;;;;;;;17.23;8.70;;;11.30;47.40;;;;;;10011938;28;20040;-70
2022/03/11 12:04:27;;;;;;;14.32;7.47;;;11.50;47.10;;;;;;10009927;28;20034;-70
2022/03/11 12:14:30;;;;;;;13.02;7.80;;;11.80;46.90;;;;;;10006973;28;20133;-69
2022/03/11 12:19:46;;;;;;;15.10;7.50;;;11.90;46.70;;;;;;9990607;28;20607;-69
2022/03/11 12:24:39;;;;;;;;;;;12.00;46.70;;;;;;9994064;28;20052;-70
2022/03/11 12:29:39;;;;;;;13.20;7.43;;;12.20;46.20;;;;;;10001053;28;19909;-71
2022/03/11 12:34:29;;;;;;;15.10;7.95;;;12.50;46.00;;;;;;9983070;28;20282;-66
2022/03/11 12:39:27;;;;;;;14.43;7.47;;;12.80;45.60;;;;;;9993581;28;20048;-69
2022/03/11 12:44:17;;;;;;;14.32;7.35;;;12.90;45.30;;;;;;9999578;28;20038;-68
2022/03/11 12:49:09;;;;;;;17.95;8.02;;;13.30;45.10;;;;;;10001118;28;20114;-71
2022/03/11 12:54:14;;;;;;;12.90;7.40;;;13.70;44.70;;;;;;9996506;28;20037;-69
2022/03/11 12:59:13;;;;;;;13.97;7.40;;;14.00;43.80;;;;;;9994099;28;20046;-68
2022/03/11 13:04:04;;;;;;;14.02;8.15;;;14.30;44.00;;;;;;9997722;28;20276;-64
2022/03/11 13:09:05;;;;;;;13.98;7.85;;;14.70;44.20;;;;;;10016234;28;20113;-70
2022/03/11 13:14:02;;;;;;;17.38;8.88;;;15.30;44.00;;;;;;10037404;28;20045;-62
2022/03/11 13:18:53;;;;;;;12.60;7.63;;;15.30;42.70;;;;;;10025862;28;20033;-69
2022/03/11 13:23:51;;;;;;;12.75;7.82;;;15.40;43.70;;;;;;10030812;28;20017;-70
2022/03/11 13:28:46;;;;;;;12.05;8.20;;;15.80;43.20;;;;;;10025693;28;20049;-68
2022/03/11 13:33:37;;;;;;;17.75;9.50;;;15.70;42.70;;;;;;10009806;28;20030;-76
2022/03/11 13:38:47;;;;;;;13.55;7.57;;;15.90;42.50;;;;;;10028246;28;20481;-69
2022/03/11 13:43:38;;;;;;;14.05;8.07;;;16.10;41.20;;;;;;9998174;28;20453;-72
2022/03/11 13:48:31;;;;;;;13.45;8.60;;;15.80;41.50;;;;;;10028377;28;20493;-68
2022/03/11 13:53:27;;;;;;;11.45;7.65;;;16.00;40.90;;;;;;10028750;28;20036;-66
2022/03/11 13:58:20;;;;;;;10.73;7.28;;;16.10;40.20;;;;;;10035825;28;20396;-64
2022/03/11 14:03:19;;;;;;;10.98;6.50;;;16.10;40.40;;;;;;10020625;28;20121;-68
2022/03/11 14:08:12;;;;;;;12.55;7.45;;;16.20;40.30;;;;;;10017414;28;20018;-72
2022/03/11 14:13:08;;;;;;;13.50;8.32;;;15.80;40.10;;;;;;10004871;28;20057;-70
2022/03/11 14:17:59;;;;;;;15.40;8.10;;;15.30;40.20;;;;;;10016487;28;20026;-69
2022/03/11 14:22:50;;;;;;;13.10;8.13;;;15.00;40.30;;;;;;10025113;28;20042;-70
2022/03/11 14:27:40;;;;;;;13.82;7.32;;;14.80;40.10;;;;;;10027359;28;20030;-70
2022/03/11 14:32:31;;;;;;;11.90;7.15;;;14.50;40.20;;;;;;10015831;28;20037;-70
2022/03/11 14:37:25;;;;;;;13.57;7.47;;;14.40;40.30;;;;;;10008220;28;20131;-69
2022/03/11 14:42:16;;;;;;;11.27;6.85;;;14.40;40.30;;;;;;10030363;28;20045;-70
2022/03/11 14:47:08;;;;;;;12.10;7.22;;;14.40;40.10;;;;;;10025719;28;20164;-70
2022/03/11 14:52:00;;;;;;;14.57;8.93;;;14.60;40.00;;;;;;10024412;28;20036;-70
2022/03/11 14:56:51;;;;;;;11.80;7.88;;;14.80;39.70;;;;;;10033294;28;20428;-69
2022/03/11 15:01:42;;;;;;;17.33;8.40;;;14.90;39.80;;;;;;10020603;28;20042;-69
2022/03/11 15:06:32;;;;;;;12.43;8.32;;;15.00;39.80;;;;;;10012611;28;20040;-69
2022/03/11 15:11:24;;;;;;;16.50;8.93;;;15.30;39.50;;;;;;10027886;28;20030;-68
2022/03/11 15:16:15;;;;;;;14.27;8.52;;;15.50;39.30;;;;;;10016120;28;20045;-67
2022/03/11 15:21:06;;;;;;;119.40;69.28;;;15.50;39.40;;;;;;9994304;28;20583;-70
2022/03/11 15:25:57;;;;;;;29.08;18.02;;;15.70;39.50;;;;;;10012089;28;20022;-70
2022/03/11 15:30:47;;;;;;;18.23;9.82;;;15.90;39.20;;;;;;10010560;28;20053;-64
2022/03/11 15:35:39;;;;;;;13.43;9.10;;;15.70;39.50;;;;;;10011765;28;20289;-69
2022/03/11 15:40:30;;;;;;;14.63;8.30;;;15.60;39.60;;;;;;10009708;28;20038;-68
2022/03/11 15:45:45;;;;;;;12.00;8.32;;;15.20;39.90;;;;;;10013353;28;20393;-71
2022/03/11 15:50:36;;;;;;;11.18;7.25;;;15.10;40.00;;;;;;10011109;28;20100;-60
2022/03/11 15:55:26;;;;;;;14.85;8.38;;;15.30;40.40;;;;;;10009419;28;20110;-62
2022/03/11 16:00:19;;;;;;;16.80;8.73;;;15.40;39.50;;;;;;10009994;28;20640;-62
2022/03/11 16:05:10;;;;;;;14.48;7.97;;;16.20;38.80;;;;;;10011838;28;20704;-63
2022/03/11 16:10:01;;;;;;;14.48;8.38;;;16.60;38.20;;;;;;10011464;28;20199;-62
2022/03/11 16:14:52;;;;;;;15.25;9.13;;;17.00;38.40;;;;;;10011973;28;20444;-63
2022/03/11 16:19:43;;;;;;;18.50;8.63;;;18.90;36.60;;;;;;10009899;28;20088;-62
2022/03/11 16:24:34;;;;;;;15.35;8.27;;;18.20;36.90;;;;;;10006061;28;20076;-64
2022/03/11 16:29:25;;;;;;;12.07;7.90;;;17.10;38.40;;;;;;9998780;28;20144;-63
2022/03/11 16:34:16;;;;;;;12.30;7.95;;;16.20;39.00;;;;;;9991824;28;20513;-63
2022/03/11 16:39:07;;;;;;;15.55;7.85;;;15.60;39.30;;;;;;9989867;28;20043;-64
2022/03/11 16:44:06;;;;;;;12.73;7.70;;;15.50;39.00;;;;;;10003954;28;20030;-63
2022/03/11 16:48:56;;;;;;;13.02;6.53;;;15.20;39.00;;;;;;9994725;28;20474;-64
2022/03/11 16:53:47;;;;;;;13.32;7.57;;;14.90;39.10;;;;;;9994578;28;20027;-62
2022/03/11 16:58:38;;;;;;;10.75;7.03;;;14.70;39.10;;;;;;9994577;28;20077;-67
2022/03/11 17:03:29;;;;;;;14.02;7.68;;;14.40;39.20;;;;;;10001475;28;20040;-66
2022/03/11 17:08:21;;;;;;;12.07;8.15;;;14.20;39.30;;;;;;10005628;28;20053;-61
2022/03/11 17:13:15;;;;;;;11.93;7.53;;;14.10;39.20;;;;;;10003635;28;20037;-65
2022/03/11 17:18:06;;;;;;;11.88;6.55;;;13.90;39.30;;;;;;9992021;28;20389;-62
2022/03/11 17:23:02;;;;;;;13.25;6.55;;;13.60;39.50;;;;;;10010275;28;20049;-60
2022/03/11 17:27:53;;;;;;;11.98;6.07;;;13.50;39.40;;;;;;9992101;28;20030;-61
2022/03/11 17:32:44;;;;;;;11.52;6.45;;;13.30;39.60;;;;;;10001493;28;20026;-60
2022/03/11 17:37:34;;;;;;;13.13;7.47;;;13.20;39.70;;;;;;10009563;28;20108;-61
2022/03/11 17:42:25;;;;;;;13.18;6.57;;;13.10;39.60;;;;;;10003944;28;20602;-60
2022/03/11 17:47:36;;;;;;;15.20;8.07;;;13.00;39.60;;;;;;10012080;28;20133;-64
2022/03/11 17:52:27;;;;;;;13.40;6.82;;;13.00;39.80;;;;;;9996899;28;20223;-61
2022/03/11 17:57:19;;;;;;;20.92;8.02;;;12.90;39.70;;;;;;10014960;28;20033;-69
2022/03/11 18:02:10;;;;;;;15.40;8.30;;;12.90;39.80;;;;;;10014113;28;20247;-77
2022/03/11 18:07:02;;;;;;;13.52;7.68;;;12.80;40.00;;;;;;10018278;28;20120;-67
2022/03/11 18:11:53;;;;;;;14.55;8.90;;;12.70;40.10;;;;;;10009608;28;20500;-65
2022/03/11 18:16:44;;;;;;;16.65;8.75;;;12.70;40.30;;;;;;10007643;28;20497;-68
2022/03/11 18:21:37;;;;;;;17.98;8.05;;;12.60;40.30;;;;;;10001033;28;20044;-71
2022/03/11 18:26:28;;;;;;;21.10;10.07;;;12.60;40.70;;;;;;10012988;28;20084;-69
2022/03/11 18:31:19;;;;;;;17.15;9.65;;;12.40;40.70;;;;;;10029148;28;20038;-70
2022/03/11 18:36:10;;;;;;;16.55;7.70;;;12.40;40.70;;;;;;9996029;28;20046;-65
2022/03/11 18:41:01;;;;;;;15.55;8.35;;;12.30;40.90;;;;;;9992867;28;20116;-71
2022/03/11 18:45:52;;;;;;;16.48;8.57;;;12.20;41.10;;;;;;10002402;28;20525;-68
2022/03/11 18:50:43;;;;;;;15.93;8.52;;;12.10;41.20;;;;;;10002176;28;20108;-69
2022/03/11 18:55:33;;;;;;;18.75;8.45;;;12.10;41.30;;;;;;9994979;28;20034;-68
2022/03/11 19:00:24;;;;;;;19.02;8.68;;;12.00;41.50;;;;;;10006564;28;20124;-62
2022/03/11 19:05:52;;;;;;;15.48;7.72;;;12.00;41.60;;;;;;10000915;28;20045;-61
2022/03/11 19:10:44;;;;;;;15.25;7.80;;;11.90;41.90;;;;;;10006692;28;20116;-66
2022/03/11 19:15:35;;;;;;;20.35;11.40;;;11.80;41.90;;;;;;10004304;28;20050;-63
2022/03/11 19:20:26;;;;;;;86.88;41.55;;;11.90;42.00;;;;;;10011216;28;20466;-60
2022/03/11 19:25:16;;;;;;;28.75;15.82;;;12.10;41.70;;;;;;10010034;28;20120;-65
2022/03/11 19:30:07;;;;;;;23.50;9.35;;;12.00;41.70;;;;;;9995532;28;20033;-67
2022/03/11 19:34:59;;;;;;;15.88;7.85;;;11.80;42.10;;;;;;10013022;28;20568;-66
2022/03/11 19:39:49;;;;;;;16.85;9.32;;;11.70;42.30;;;;;;10010865;28;20033;-64
2022/03/11 19:44:41;;;;;;;17.27;8.98;;;11.60;42.40;;;;;;9997844;28;20543;-60
2022/03/11 19:49:32;;;;;;;42.03;21.23;;;11.50;42.50;;;;;;10003296;28;20018;-65
2022/03/11 19:54:23;;;;;;;22.08;11.60;;;11.80;42.30;;;;;;10011038;28;20504;-64
2022/03/11 19:59:14;;;;;;;68.63;35.60;;;12.00;42.00;;;;;;10005203;28;20044;-66
2022/03/11 20:04:05;;;;;;;29.38;15.75;;;12.20;41.80;;;;;;9996538;28;20508;-66
2022/03/11 20:08:58;;;;;;;21.13;11.80;;;12.20;42.10;;;;;;10001214;28;20033;-67
2022/03/11 20:13:52;;;;;;;24.45;10.85;;;11.80;42.70;;;;;;10001248;28;20050;-68
2022/03/11 20:18:42;;;;;;;20.05;9.05;;;11.60;43.10;;;;;;10010634;28;20068;-66
2022/03/11 20:23:33;;;;;;;17.50;8.55;;;11.40;43.20;;;;;;10004634;28;20049;-62
2022/03/11 20:28:24;;;;;;;16.35;8.10;;;11.30;43.40;;;;;;9998355;28;20041;-60
2022/03/11 20:33:15;;;;;;;20.50;9.43;;;11.30;43.40;;;;;;10010602;28;20468;-60
2022/03/11 20:38:06;;;;;;;23.35;9.52;;;11.30;43.40;;;;;;9995291;28;20045;-61
2022/03/11 20:42:56;;;;;;;18.15;10.75;;;11.20;43.70;;;;;;10014027;28;20042;-63
2022/03/11 20:47:47;;;;;;;25.73;12.48;;;11.00;43.90;;;;;;10011147;28;20042;-62
2022/03/11 20:52:39;;;;;;;20.45;10.70;;;11.00;44.10;;;;;;9995664;28;20037;-62
2022/03/11 20:57:31;;;;;;;111.43;53.55;;;10.90;44.30;;;;;;9999026;28;20037;-63
2022/03/11 21:02:22;;;;;;;172.05;79.18;;;11.00;44.50;;;;;;10002838;28;20038;-63
2022/03/11 21:07:13;;;;;;;29.92;17.08;;;11.40;44.10;;;;;;9991065;28;20030;-67
2022/03/11 21:12:08;;;;;;;20.73;12.07;;;11.30;44.10;;;;;;10008442;28;20037;-64
2022/03/11 21:16:59;;;;;;;24.33;11.93;;;11.00;44.80;;;;;;10007126;28;20038;-60
2022/03/11 21:21:50;;;;;;;22.20;10.68;;;10.90;45.00;;;;;;10007796;28;20441;-64
2022/03/11 21:26:40;;;;;;;20.40;10.73;;;10.90;45.10;;;;;;10010269;28;20033;-60
2022/03/11 21:31:31;;;;;;;20.58;10.05;;;10.90;45.30;;;;;;10014977;28;20028;-61
2022/03/11 21:36:22;;;;;;;18.67;9.45;;;10.80;45.30;;;;;;10018249;28;20026;-64
2022/03/11 21:41:14;;;;;;;27.50;12.82;;;10.60;45.60;;;;;;10017833;28;20033;-62
2022/03/11 21:46:04;;;;;;;20.52;11.05;;;10.60;45.60;;;;;;10016822;28;20026;-62
2022/03/11 21:50:55;;;;;;;19.63;9.48;;;10.60;45.90;;;;;;10016944;28;20030;-63
2022/03/11 21:55:52;;;;;;;23.02;9.50;;;10.40;46.00;;;;;;10014167;28;20218;-56
2022/03/11 22:00:46;;;;;;;34.60;19.50;;;10.30;46.30;;;;;;10017636;28;20042;-58
2022/03/11 22:05:37;;;;;;;39.47;18.60;;;10.60;46.00;;;;;;10017475;28;20117;-55
2022/03/11 22:10:29;;;;;;;27.33;14.95;;;10.80;45.60;;;;;;10013027;28;20129;-60
2022/03/11 22:15:19;;;;;;;16.95;8.85;;;10.70;46.10;;;;;;10031465;28;20125;-62
2022/03/11 22:20:11;;;;;;;19.33;10.63;;;10.50;46.90;;;;;;10020916;28;20075;-65
2022/03/11 22:25:02;;;;;;;17.38;9.32;;;10.40;46.90;;;;;;10025319;28;20112;-66
2022/03/11 22:29:54;;;;;;;214.27;98.22;;;10.40;46.90;;;;;;10040550;28;20754;-60
2022/03/11 22:34:45;;;;;;;60.63;32.70;;;10.70;46.40;;;;;;10031276;28;20060;-63
2022/03/11 22:39:36;;;;;;;26.95;11.63;;;11.00;46.30;;;;;;10038745;28;20060;-58
2022/03/11 22:44:27;;;;;;;22.92;10.57;;;10.70;46.60;;;;;;10037440;28;20018;-59
2022/03/11 22:49:18;;;;;;;18.45;11.02;;;10.70;46.90;;;;;;10035354;28;20238;-59
2022/03/11 22:54:11;;;;;;;14.80;8.55;;;10.50;46.90;;;;;;10000610;28;20060;-60
2022/03/11 22:59:10;;;;;;;29.45;12.80;;;10.40;47.20;;;;;;10019394;28;20044;-61
2022/03/11 23:04:01;;;;;;;61.22;33.47;;;10.70;47.20;;;;;;10031973;28;20584;-59
2022/03/11 23:14:01;;;;;;;138.27;67.47;;;11.70;45.80;;;;;;9998252;28;20053;-53
2022/03/11 23:18:52;;;;;;;59.60;32.05;;;12.00;45.20;;;;;;10006545;28;20031;-60
2022/03/11 23:23:43;;;;;;;22.95;10.90;;;11.50;45.90;;;;;;10006962;28;20041;-60
2022/03/11 23:28:33;;;;;;;17.25;10.05;;;11.20;46.60;;;;;;10010640;28;20125;-61
2022/03/11 23:33:33;;;;;;;21.75;9.82;;;10.80;47.10;;;;;;10011049;28;20506;-61
2022/03/11 23:38:24;;;;;;;18.10;10.35;;;10.60;47.30;;;;;;10012669;28;20492;-61
2022/03/11 23:43:16;;;;;;;19.63;10.10;;;10.50;47.40;;;;;;10012100;28;20042;-57
2022/03/11 23:48:07;;;;;;;24.85;10.57;;;10.40;47.40;;;;;;10009878;28;20026;-61
2022/03/11 23:52:58;;;;;;;21.25;11.25;;;10.20;47.70;;;;;;10012855;28;20677;-57
2022/03/11 23:57:49;;;;;;;22.30;10.75;;;10.60;46.90;;;;;;10012546;28;20042;-56
